sensor_id;sensor_type;location;lat;lon;timestamp;temperature;humidity
1536;DHT22;761;50.074;8.228;2022-10-16T00:01:29;14.80;1.00
1536;DHT22;761;50.074;8.228;2022-10-16T00:03:59;14.80;1.00
1536;DHT22;761;50.074;8.228;2022-10-16T00:06:29;14.70;1.00
1536;DHT22;761;50.074;8.228;2022-10-16T00:09:02;14.60;1.00
1536;DHT22;761;50.074;8.228;2022-10-16T00:11:33;14.50;1.00
1536;DHT22;761;50.074;8.228;2022-10-16T00:14:05;14.40;1.00
1536;DHT22;761;50.074;8.228;2022-10-16T00:16:34;14.30;1.00
1536;DHT22;761;50.074;8.228;2022-10-16T00:19:03;14.30;1.00
1536;DHT22;761;50.074;8.228;2022-10-16T00:21:33;14.30;1.00
1536;DHT22;761;50.074;8.228;2022-10-16T00:24:04;14.30;1.00
1536;DHT22;761;50.074;8.228;2022-10-16T00:26:34;14.30;1.00
1536;DHT22;761;50.074;8.228;2022-10-16T00:29:04;14.40;1.00
1536;DHT22;761;50.074;8.228;2022-10-16T00:31:33;14.40;1.00
1536;DHT22;761;50.074;8.228;2022-10-16T00:34:01;14.40;1.00
1536;DHT22;761;50.074;8.228;2022-10-16T00:36:30;14.40;1.00
1536;DHT22;761;50.074;8.228;2022-10-16T00:38:58;14.40;1.00
1536;DHT22;761;50.074;8.228;2022-10-16T00:41:33;14.40;1.00
1536;DHT22;761;50.074;8.228;2022-10-16T00:44:03;14.40;1.00
1536;DHT22;761;50.074;8.228;2022-10-16T00:46:38;14.40;1.00
1536;DHT22;761;50.074;8.228;2022-10-16T00:49:10;14.40;1.00
1536;DHT22;761;50.074;8.228;2022-10-16T00:51:40;14.40;1.00
1536;DHT22;761;50.074;8.228;2022-10-16T00:54:12;14.40;1.00
1536;DHT22;761;50.074;8.228;2022-10-16T00:56:43;14.30;1.00
1536;DHT22;761;50.074;8.228;2022-10-16T00:59:16;14.30;1.00
1536;DHT22;761;50.074;8.228;2022-10-16T01:01:49;14.30;1.00
1536;DHT22;761;50.074;8.228;2022-10-16T01:04:17;14.30;1.00
1536;DHT22;761;50.074;8.228;2022-10-16T01:06:53;14.30;1.00
1536;DHT22;761;50.074;8.228;2022-10-16T01:09:28;14.50;1.00
1536;DHT22;761;50.074;8.228;2022-10-16T01:12:06;14.60;1.00
1536;DHT22;761;50.074;8.228;2022-10-16T01:14:42;14.50;1.00
1536;DHT22;761;50.074;8.228;2022-10-16T01:17:15;14.80;1.00
1536;DHT22;761;50.074;8.228;2022-10-16T01:20:00;15.00;1.00
1536;DHT22;761;50.074;8.228;2022-10-16T01:22:38;15.00;1.00
1536;DHT22;761;50.074;8.228;2022-10-16T01:25:13;14.90;1.00
1536;DHT22;761;50.074;8.228;2022-10-16T01:27:46;15.00;1.00
1536;DHT22;761;50.074;8.228;2022-10-16T01:30:18;15.00;1.00
1536;DHT22;761;50.074;8.228;2022-10-16T01:32:51;14.80;1.00
1536;DHT22;761;50.074;8.228;2022-10-16T01:35:23;14.40;1.00
1536;DHT22;761;50.074;8.228;2022-10-16T01:37:55;14.40;1.00
1536;DHT22;761;50.074;8.228;2022-10-16T01:40:27;14.40;1.00
1536;DHT22;761;50.074;8.228;2022-10-16T01:43:01;14.40;1.00
1536;DHT22;761;50.074;8.228;2022-10-16T01:45:32;14.50;1.00
1536;DHT22;761;50.074;8.228;2022-10-16T01:48:02;14.50;1.00
1536;DHT22;761;50.074;8.228;2022-10-16T01:50:33;14.50;1.00
1536;DHT22;761;50.074;8.228;2022-10-16T01:53:04;14.60;1.00
1536;DHT22;761;50.074;8.228;2022-10-16T01:55:35;14.70;1.00
1536;DHT22;761;50.074;8.228;2022-10-16T01:58:08;14.70;1.00
1536;DHT22;761;50.074;8.228;2022-10-16T02:00:38;14.80;1.00
1536;DHT22;761;50.074;8.228;2022-10-16T02:03:07;14.80;1.00
1536;DHT22;761;50.074;8.228;2022-10-16T02:05:40;14.70;1.00
1536;DHT22;761;50.074;8.228;2022-10-16T02:08:09;14.80;1.00
1536;DHT22;761;50.074;8.228;2022-10-16T02:10:38;14.70;1.00
1536;DHT22;761;50.074;8.228;2022-10-16T02:13:11;14.60;1.00
1536;DHT22;761;50.074;8.228;2022-10-16T02:15:40;14.60;1.00
1536;DHT22;761;50.074;8.228;2022-10-16T02:18:09;14.60;1.00
1536;DHT22;761;50.074;8.228;2022-10-16T02:20:43;14.70;1.00
1536;DHT22;761;50.074;8.228;2022-10-16T02:23:20;14.80;1.00
1536;DHT22;761;50.074;8.228;2022-10-16T02:25:54;14.80;1.00
1536;DHT22;761;50.074;8.228;2022-10-16T02:28:29;14.70;1.00
1536;DHT22;761;50.074;8.228;2022-10-16T02:31:04;14.60;1.00
1536;DHT22;761;50.074;8.228;2022-10-16T02:33:35;14.60;1.00
1536;DHT22;761;50.074;8.228;2022-10-16T02:38:34;14.70;1.00
1536;DHT22;761;50.074;8.228;2022-10-16T02:41:03;14.70;1.00
1536;DHT22;761;50.074;8.228;2022-10-16T02:43:33;14.70;1.00
1536;DHT22;761;50.074;8.228;2022-10-16T02:46:04;14.70;1.00
1536;DHT22;761;50.074;8.228;2022-10-16T02:48:32;14.60;1.00
1536;DHT22;761;50.074;8.228;2022-10-16T02:51:02;14.70;1.00
1536;DHT22;761;50.074;8.228;2022-10-16T02:53:31;14.70;1.00
1536;DHT22;761;50.074;8.228;2022-10-16T02:55:59;14.80;1.00
1536;DHT22;761;50.074;8.228;2022-10-16T02:58:27;14.90;1.00
1536;DHT22;761;50.074;8.228;2022-10-16T03:00:57;15.10;1.00
1536;DHT22;761;50.074;8.228;2022-10-16T03:05:54;15.20;1.00
1536;DHT22;761;50.074;8.228;2022-10-16T03:08:23;15.00;1.00
1536;DHT22;761;50.074;8.228;2022-10-16T03:13:20;14.90;1.00
1536;DHT22;761;50.074;8.228;2022-10-16T03:15:48;14.90;1.00
1536;DHT22;761;50.074;8.228;2022-10-16T03:18:18;14.80;1.00
1536;DHT22;761;50.074;8.228;2022-10-16T03:20:49;14.80;1.00
1536;DHT22;761;50.074;8.228;2022-10-16T03:23:17;14.80;1.00
1536;DHT22;761;50.074;8.228;2022-10-16T03:25:45;14.70;1.00
1536;DHT22;761;50.074;8.228;2022-10-16T03:28:14;14.70;1.00
1536;DHT22;761;50.074;8.228;2022-10-16T03:30:43;14.80;1.00
1536;DHT22;761;50.074;8.228;2022-10-16T03:33:11;14.90;1.00
1536;DHT22;761;50.074;8.228;2022-10-16T03:35:40;15.00;1.00
1536;DHT22;761;50.074;8.228;2022-10-16T03:38:09;15.00;1.00
1536;DHT22;761;50.074;8.228;2022-10-16T03:40:37;15.00;1.00
1536;DHT22;761;50.074;8.228;2022-10-16T03:43:05;15.00;1.00
1536;DHT22;761;50.074;8.228;2022-10-16T03:48:01;15.00;1.00
1536;DHT22;761;50.074;8.228;2022-10-16T03:50:30;15.00;1.00
1536;DHT22;761;50.074;8.228;2022-10-16T03:52:59;15.00;1.00
1536;DHT22;761;50.074;8.228;2022-10-16T03:55:27;14.70;1.00
1536;DHT22;761;50.074;8.228;2022-10-16T03:57:56;14.70;1.00
1536;DHT22;761;50.074;8.228;2022-10-16T04:00:26;14.60;1.00
1536;DHT22;761;50.074;8.228;2022-10-16T04:02:56;14.70;1.00
1536;DHT22;761;50.074;8.228;2022-10-16T04:05:25;14.80;1.00
1536;DHT22;761;50.074;8.228;2022-10-16T04:07:53;14.70;1.00
1536;DHT22;761;50.074;8.228;2022-10-16T04:10:25;14.60;1.00
1536;DHT22;761;50.074;8.228;2022-10-16T04:12:53;14.60;1.00
1536;DHT22;761;50.074;8.228;2022-10-16T04:15:23;14.60;1.00
1536;DHT22;761;50.074;8.228;2022-10-16T04:17:52;14.60;1.00
1536;DHT22;761;50.074;8.228;2022-10-16T04:20:21;14.70;1.00
1536;DHT22;761;50.074;8.228;2022-10-16T04:22:49;14.80;1.00
1536;DHT22;761;50.074;8.228;2022-10-16T04:25:17;14.80;1.00
1536;DHT22;761;50.074;8.228;2022-10-16T04:27:49;14.70;1.00
1536;DHT22;761;50.074;8.228;2022-10-16T04:30:17;14.70;1.00
1536;DHT22;761;50.074;8.228;2022-10-16T04:32:48;14.70;1.00
1536;DHT22;761;50.074;8.228;2022-10-16T04:35:17;14.90;1.00
1536;DHT22;761;50.074;8.228;2022-10-16T04:37:47;15.00;1.00
1536;DHT22;761;50.074;8.228;2022-10-16T04:40:17;15.00;1.00
1536;DHT22;761;50.074;8.228;2022-10-16T04:42:45;15.10;1.00
1536;DHT22;761;50.074;8.228;2022-10-16T04:45:15;15.10;1.00
1536;DHT22;761;50.074;8.228;2022-10-16T04:47:43;15.10;1.00
1536;DHT22;761;50.074;8.228;2022-10-16T04:50:11;15.00;1.00
1536;DHT22;761;50.074;8.228;2022-10-16T04:52:39;15.00;1.00
1536;DHT22;761;50.074;8.228;2022-10-16T04:55:08;15.00;1.00
1536;DHT22;761;50.074;8.228;2022-10-16T04:57:36;14.90;1.00
1536;DHT22;761;50.074;8.228;2022-10-16T05:00:05;14.90;1.00
1536;DHT22;761;50.074;8.228;2022-10-16T05:02:36;14.90;1.00
1536;DHT22;761;50.074;8.228;2022-10-16T05:05:05;15.00;1.00
1536;DHT22;761;50.074;8.228;2022-10-16T05:07:33;15.00;1.00
1536;DHT22;761;50.074;8.228;2022-10-16T05:10:02;15.20;1.00
1536;DHT22;761;50.074;8.228;2022-10-16T05:12:30;15.20;1.00
1536;DHT22;761;50.074;8.228;2022-10-16T05:14:59;15.00;1.00
1536;DHT22;761;50.074;8.228;2022-10-16T05:17:27;15.00;1.00
1536;DHT22;761;50.074;8.228;2022-10-16T05:19:57;14.90;1.00
1536;DHT22;761;50.074;8.228;2022-10-16T05:22:25;14.70;1.00
1536;DHT22;761;50.074;8.228;2022-10-16T05:24:53;14.70;1.00
1536;DHT22;761;50.074;8.228;2022-10-16T05:27:22;14.60;1.00
1536;DHT22;761;50.074;8.228;2022-10-16T05:29:50;14.70;1.00
1536;DHT22;761;50.074;8.228;2022-10-16T05:32:19;14.70;1.00
1536;DHT22;761;50.074;8.228;2022-10-16T05:34:47;14.60;1.00
1536;DHT22;761;50.074;8.228;2022-10-16T05:37:16;14.60;1.00
1536;DHT22;761;50.074;8.228;2022-10-16T05:39:45;14.60;1.00
1536;DHT22;761;50.074;8.228;2022-10-16T05:42:13;15.40;1.00
1536;DHT22;761;50.074;8.228;2022-10-16T05:47:12;14.70;1.00
1536;DHT22;761;50.074;8.228;2022-10-16T05:49:41;14.60;1.00
1536;DHT22;761;50.074;8.228;2022-10-16T05:52:12;14.70;1.00
1536;DHT22;761;50.074;8.228;2022-10-16T05:54:41;14.60;1.00
1536;DHT22;761;50.074;8.228;2022-10-16T05:57:10;14.60;1.00
1536;DHT22;761;50.074;8.228;2022-10-16T05:59:38;14.60;1.00
1536;DHT22;761;50.074;8.228;2022-10-16T06:02:11;14.70;1.00
1536;DHT22;761;50.074;8.228;2022-10-16T06:04:42;14.70;1.00
1536;DHT22;761;50.074;8.228;2022-10-16T06:07:10;14.70;1.00
1536;DHT22;761;50.074;8.228;2022-10-16T06:09:39;14.70;1.00
1536;DHT22;761;50.074;8.228;2022-10-16T06:12:08;14.70;1.00
1536;DHT22;761;50.074;8.228;2022-10-16T06:14:36;14.70;1.00
1536;DHT22;761;50.074;8.228;2022-10-16T06:17:05;14.80;1.00
1536;DHT22;761;50.074;8.228;2022-10-16T06:19:34;14.70;1.00
1536;DHT22;761;50.074;8.228;2022-10-16T06:22:02;14.70;1.00
1536;DHT22;761;50.074;8.228;2022-10-16T06:24:35;14.70;1.00
1536;DHT22;761;50.074;8.228;2022-10-16T06:27:03;14.80;1.00
1536;DHT22;761;50.074;8.228;2022-10-16T06:29:35;14.90;1.00
1536;DHT22;761;50.074;8.228;2022-10-16T06:32:28;14.90;1.00
1536;DHT22;761;50.074;8.228;2022-10-16T06:34:56;14.90;1.00
1536;DHT22;761;50.074;8.228;2022-10-16T06:37:24;14.90;1.00
1536;DHT22;761;50.074;8.228;2022-10-16T06:39:53;15.10;1.00
1536;DHT22;761;50.074;8.228;2022-10-16T06:42:21;15.10;1.00
1536;DHT22;761;50.074;8.228;2022-10-16T06:44:51;15.10;1.00
1536;DHT22;761;50.074;8.228;2022-10-16T06:47:20;15.10;1.00
1536;DHT22;761;50.074;8.228;2022-10-16T06:49:48;15.10;1.00
1536;DHT22;761;50.074;8.228;2022-10-16T06:57:21;14.80;1.00
1536;DHT22;761;50.074;8.228;2022-10-16T06:59:51;14.90;1.00
1536;DHT22;761;50.074;8.228;2022-10-16T07:02:21;15.00;1.00
1536;DHT22;761;50.074;8.228;2022-10-16T07:04:50;15.10;1.00
1536;DHT22;761;50.074;8.228;2022-10-16T07:07:20;15.10;1.00
1536;DHT22;761;50.074;8.228;2022-10-16T07:09:51;15.00;1.00
1536;DHT22;761;50.074;8.228;2022-10-16T07:12:19;14.90;1.00
1536;DHT22;761;50.074;8.228;2022-10-16T07:14:47;14.90;1.00
1536;DHT22;761;50.074;8.228;2022-10-16T07:17:19;14.80;1.00
1536;DHT22;761;50.074;8.228;2022-10-16T07:19:48;14.80;1.00
1536;DHT22;761;50.074;8.228;2022-10-16T07:22:19;14.80;1.00
1536;DHT22;761;50.074;8.228;2022-10-16T07:24:52;14.80;1.00
1536;DHT22;761;50.074;8.228;2022-10-16T07:29:50;14.80;1.00
1536;DHT22;761;50.074;8.228;2022-10-16T07:32:20;14.90;1.00
1536;DHT22;761;50.074;8.228;2022-10-16T07:37:20;15.10;1.00
1536;DHT22;761;50.074;8.228;2022-10-16T07:39:48;15.20;1.00
1536;DHT22;761;50.074;8.228;2022-10-16T07:42:16;15.20;1.00
1536;DHT22;761;50.074;8.228;2022-10-16T07:44:45;15.20;1.00
1536;DHT22;761;50.074;8.228;2022-10-16T07:47:13;15.10;1.00
1536;DHT22;761;50.074;8.228;2022-10-16T07:49:43;15.10;1.00
1536;DHT22;761;50.074;8.228;2022-10-16T07:52:13;15.10;1.00
1536;DHT22;761;50.074;8.228;2022-10-16T07:54:42;15.10;1.00
1536;DHT22;761;50.074;8.228;2022-10-16T07:57:10;15.20;1.00
1536;DHT22;761;50.074;8.228;2022-10-16T07:59:38;15.20;1.00
1536;DHT22;761;50.074;8.228;2022-10-16T08:02:07;15.30;1.00
1536;DHT22;761;50.074;8.228;2022-10-16T08:04:38;15.30;1.00
1536;DHT22;761;50.074;8.228;2022-10-16T08:07:08;15.30;1.00
1536;DHT22;761;50.074;8.228;2022-10-16T08:09:36;15.40;1.00
1536;DHT22;761;50.074;8.228;2022-10-16T08:12:05;15.30;1.00
1536;DHT22;761;50.074;8.228;2022-10-16T08:14:33;15.20;1.00
1536;DHT22;761;50.074;8.228;2022-10-16T08:19:31;15.30;1.00
1536;DHT22;761;50.074;8.228;2022-10-16T08:22:03;15.50;1.00
1536;DHT22;761;50.074;8.228;2022-10-16T08:24:36;15.60;1.00
1536;DHT22;761;50.074;8.228;2022-10-16T08:29:33;15.70;1.00
1536;DHT22;761;50.074;8.228;2022-10-16T08:37:01;15.80;1.00
1536;DHT22;761;50.074;8.228;2022-10-16T08:39:29;15.70;1.00
1536;DHT22;761;50.074;8.228;2022-10-16T08:42:20;15.80;1.00
1536;DHT22;761;50.074;8.228;2022-10-16T08:45:14;15.80;1.00
1536;DHT22;761;50.074;8.228;2022-10-16T08:47:51;15.80;1.00
1536;DHT22;761;50.074;8.228;2022-10-16T08:50:24;15.70;1.00
1536;DHT22;761;50.074;8.228;2022-10-16T08:52:55;15.80;1.00
1536;DHT22;761;50.074;8.228;2022-10-16T08:55:31;15.90;1.00
1536;DHT22;761;50.074;8.228;2022-10-16T08:58:12;15.90;1.00
1536;DHT22;761;50.074;8.228;2022-10-16T09:00:42;16.10;1.00
1536;DHT22;761;50.074;8.228;2022-10-16T09:03:18;16.00;1.00
1536;DHT22;761;50.074;8.228;2022-10-16T09:05:57;16.10;1.00
1536;DHT22;761;50.074;8.228;2022-10-16T09:08:38;16.10;1.00
1536;DHT22;761;50.074;8.228;2022-10-16T09:11:16;16.10;1.00
1536;DHT22;761;50.074;8.228;2022-10-16T09:13:55;16.10;1.00
1536;DHT22;761;50.074;8.228;2022-10-16T09:19:16;16.00;1.00
1536;DHT22;761;50.074;8.228;2022-10-16T09:24:21;15.80;1.00
1536;DHT22;761;50.074;8.228;2022-10-16T09:26:55;15.80;1.00
1536;DHT22;761;50.074;8.228;2022-10-16T09:29:24;15.80;1.00
1536;DHT22;761;50.074;8.228;2022-10-16T09:31:53;15.90;1.00
1536;DHT22;761;50.074;8.228;2022-10-16T09:34:30;16.00;1.00
1536;DHT22;761;50.074;8.228;2022-10-16T09:37:00;16.20;1.00
1536;DHT22;761;50.074;8.228;2022-10-16T09:39:31;16.10;1.00
1536;DHT22;761;50.074;8.228;2022-10-16T09:42:14;16.30;1.00
1536;DHT22;761;50.074;8.228;2022-10-16T09:44:47;16.30;1.00
1536;DHT22;761;50.074;8.228;2022-10-16T09:47:19;16.30;1.00
1536;DHT22;761;50.074;8.228;2022-10-16T09:49:52;16.30;1.00
1536;DHT22;761;50.074;8.228;2022-10-16T09:52:20;16.40;1.00
1536;DHT22;761;50.074;8.228;2022-10-16T09:54:52;16.50;1.00
1536;DHT22;761;50.074;8.228;2022-10-16T09:57:24;16.60;1.00
1536;DHT22;761;50.074;8.228;2022-10-16T09:59:55;16.70;1.00
1536;DHT22;761;50.074;8.228;2022-10-16T10:02:29;16.80;1.00
1536;DHT22;761;50.074;8.228;2022-10-16T10:04:58;17.10;1.00
1536;DHT22;761;50.074;8.228;2022-10-16T10:07:29;17.10;1.00
1536;DHT22;761;50.074;8.228;2022-10-16T10:10:01;17.30;1.00
1536;DHT22;761;50.074;8.228;2022-10-16T10:12:31;17.50;1.00
1536;DHT22;761;50.074;8.228;2022-10-16T10:15:07;17.60;1.00
1536;DHT22;761;50.074;8.228;2022-10-16T10:17:46;17.60;1.00
1536;DHT22;761;50.074;8.228;2022-10-16T10:20:28;17.60;1.00
1536;DHT22;761;50.074;8.228;2022-10-16T10:22:58;17.60;1.00
1536;DHT22;761;50.074;8.228;2022-10-16T10:25:45;17.80;1.00
1536;DHT22;761;50.074;8.228;2022-10-16T10:28:29;17.90;1.00
1536;DHT22;761;50.074;8.228;2022-10-16T10:31:08;17.90;1.00
1536;DHT22;761;50.074;8.228;2022-10-16T10:33:45;18.40;1.00
1536;DHT22;761;50.074;8.228;2022-10-16T10:36:28;18.30;1.00
1536;DHT22;761;50.074;8.228;2022-10-16T10:39:00;18.30;1.00
1536;DHT22;761;50.074;8.228;2022-10-16T10:41:58;18.40;1.00
1536;DHT22;761;50.074;8.228;2022-10-16T10:44:39;18.60;1.00
1536;DHT22;761;50.074;8.228;2022-10-16T10:47:24;18.40;1.00
1536;DHT22;761;50.074;8.228;2022-10-16T10:50:03;18.40;1.00
1536;DHT22;761;50.074;8.228;2022-10-16T10:52:43;18.20;1.00
1536;DHT22;761;50.074;8.228;2022-10-16T10:55:22;17.70;1.00
1536;DHT22;761;50.074;8.228;2022-10-16T10:58:05;17.80;1.00
1536;DHT22;761;50.074;8.228;2022-10-16T11:00:42;17.90;1.00
1536;DHT22;761;50.074;8.228;2022-10-16T11:03:32;17.80;1.00
1536;DHT22;761;50.074;8.228;2022-10-16T11:06:06;17.90;1.00
1536;DHT22;761;50.074;8.228;2022-10-16T11:08:37;17.90;1.00
1536;DHT22;761;50.074;8.228;2022-10-16T11:11:10;18.10;1.00
1536;DHT22;761;50.074;8.228;2022-10-16T11:13:47;18.50;1.00
1536;DHT22;761;50.074;8.228;2022-10-16T11:16:26;18.50;1.00
1536;DHT22;761;50.074;8.228;2022-10-16T11:18:59;18.60;1.00
1536;DHT22;761;50.074;8.228;2022-10-16T11:21:44;18.80;1.00
1536;DHT22;761;50.074;8.228;2022-10-16T11:24:21;18.50;1.00
1536;DHT22;761;50.074;8.228;2022-10-16T11:26:54;18.40;1.00
1536;DHT22;761;50.074;8.228;2022-10-16T11:29:28;18.40;1.00
1536;DHT22;761;50.074;8.228;2022-10-16T11:32:00;18.40;1.00
1536;DHT22;761;50.074;8.228;2022-10-16T11:34:35;18.40;1.00
1536;DHT22;761;50.074;8.228;2022-10-16T11:37:11;18.50;1.00
1536;DHT22;761;50.074;8.228;2022-10-16T11:39:40;18.50;1.00
1536;DHT22;761;50.074;8.228;2022-10-16T11:42:11;18.70;1.00
1536;DHT22;761;50.074;8.228;2022-10-16T11:44:51;18.70;1.00
1536;DHT22;761;50.074;8.228;2022-10-16T11:47:31;18.40;1.00
1536;DHT22;761;50.074;8.228;2022-10-16T11:50:28;18.50;1.00
1536;DHT22;761;50.074;8.228;2022-10-16T11:53:03;18.70;1.00
1536;DHT22;761;50.074;8.228;2022-10-16T11:55:36;19.50;1.00
1536;DHT22;761;50.074;8.228;2022-10-16T11:58:19;19.40;1.00
1536;DHT22;761;50.074;8.228;2022-10-16T12:00:57;19.40;1.00
1536;DHT22;761;50.074;8.228;2022-10-16T12:03:30;19.10;1.00
1536;DHT22;761;50.074;8.228;2022-10-16T12:08:54;18.90;1.00
1536;DHT22;761;50.074;8.228;2022-10-16T12:11:32;18.80;1.00
1536;DHT22;761;50.074;8.228;2022-10-16T12:14:19;18.70;1.00
1536;DHT22;761;50.074;8.228;2022-10-16T12:16:53;18.70;1.00
1536;DHT22;761;50.074;8.228;2022-10-16T12:19:23;18.70;1.00
1536;DHT22;761;50.074;8.228;2022-10-16T12:21:56;18.70;1.00
1536;DHT22;761;50.074;8.228;2022-10-16T12:24:34;18.60;1.00
1536;DHT22;761;50.074;8.228;2022-10-16T12:27:05;18.50;1.00
1536;DHT22;761;50.074;8.228;2022-10-16T12:29:36;18.40;1.00
1536;DHT22;761;50.074;8.228;2022-10-16T12:32:23;18.40;1.00
1536;DHT22;761;50.074;8.228;2022-10-16T12:35:19;18.50;1.00
1536;DHT22;761;50.074;8.228;2022-10-16T12:37:50;18.50;1.00
1536;DHT22;761;50.074;8.228;2022-10-16T12:40:27;18.50;1.00
1536;DHT22;761;50.074;8.228;2022-10-16T12:42:58;18.40;1.00
1536;DHT22;761;50.074;8.228;2022-10-16T12:45:29;18.40;1.00
1536;DHT22;761;50.074;8.228;2022-10-16T12:47:59;18.40;1.00
1536;DHT22;761;50.074;8.228;2022-10-16T12:50:33;18.40;1.00
1536;DHT22;761;50.074;8.228;2022-10-16T12:53:16;18.50;1.00
1536;DHT22;761;50.074;8.228;2022-10-16T12:55:52;18.60;1.00
1536;DHT22;761;50.074;8.228;2022-10-16T12:58:35;18.60;1.00
1536;DHT22;761;50.074;8.228;2022-10-16T13:01:12;18.60;1.00
1536;DHT22;761;50.074;8.228;2022-10-16T13:04:14;18.60;1.00
1536;DHT22;761;50.074;8.228;2022-10-16T13:06:52;18.80;1.00
1536;DHT22;761;50.074;8.228;2022-10-16T13:09:40;18.90;1.00
1536;DHT22;761;50.074;8.228;2022-10-16T13:12:23;19.10;1.00
1536;DHT22;761;50.074;8.228;2022-10-16T13:15:24;19.20;1.00
1536;DHT22;761;50.074;8.228;2022-10-16T13:18:00;19.30;1.00
1536;DHT22;761;50.074;8.228;2022-10-16T13:20:36;19.30;1.00
1536;DHT22;761;50.074;8.228;2022-10-16T13:23:13;19.20;1.00
1536;DHT22;761;50.074;8.228;2022-10-16T13:25:55;19.20;1.00
1536;DHT22;761;50.074;8.228;2022-10-16T13:28:29;19.20;1.00
1536;DHT22;761;50.074;8.228;2022-10-16T13:31:00;19.20;1.00
1536;DHT22;761;50.074;8.228;2022-10-16T13:33:32;19.20;1.00
1536;DHT22;761;50.074;8.228;2022-10-16T13:36:01;19.10;1.00
1536;DHT22;761;50.074;8.228;2022-10-16T13:38:31;19.30;1.00
1536;DHT22;761;50.074;8.228;2022-10-16T13:41:04;19.30;1.00
1536;DHT22;761;50.074;8.228;2022-10-16T13:43:35;19.30;1.00
1536;DHT22;761;50.074;8.228;2022-10-16T13:46:07;19.30;1.00
1536;DHT22;761;50.074;8.228;2022-10-16T13:48:39;19.30;1.00
1536;DHT22;761;50.074;8.228;2022-10-16T13:51:12;19.30;1.00
1536;DHT22;761;50.074;8.228;2022-10-16T13:53:42;19.30;1.00
1536;DHT22;761;50.074;8.228;2022-10-16T13:56:13;19.20;1.00
1536;DHT22;761;50.074;8.228;2022-10-16T13:58:42;19.20;1.00
1536;DHT22;761;50.074;8.228;2022-10-16T14:01:18;19.20;1.00
1536;DHT22;761;50.074;8.228;2022-10-16T14:03:47;19.20;1.00
1536;DHT22;761;50.074;8.228;2022-10-16T14:06:19;19.10;1.00
1536;DHT22;761;50.074;8.228;2022-10-16T14:08:53;19.20;1.00
1536;DHT22;761;50.074;8.228;2022-10-16T14:11:24;19.10;1.00
1536;DHT22;761;50.074;8.228;2022-10-16T14:13:56;19.10;1.00
1536;DHT22;761;50.074;8.228;2022-10-16T14:16:27;19.10;1.00
1536;DHT22;761;50.074;8.228;2022-10-16T14:18:59;19.20;1.00
1536;DHT22;761;50.074;8.228;2022-10-16T14:21:28;19.20;1.00
1536;DHT22;761;50.074;8.228;2022-10-16T14:23:57;19.30;1.00
1536;DHT22;761;50.074;8.228;2022-10-16T14:26:29;19.40;1.00
1536;DHT22;761;50.074;8.228;2022-10-16T14:29:18;19.40;1.00
1536;DHT22;761;50.074;8.228;2022-10-16T14:31:55;19.40;1.00
1536;DHT22;761;50.074;8.228;2022-10-16T14:34:25;19.50;1.00
1536;DHT22;761;50.074;8.228;2022-10-16T14:36:59;19.50;1.00
1536;DHT22;761;50.074;8.228;2022-10-16T14:39:31;19.60;1.00
1536;DHT22;761;50.074;8.228;2022-10-16T14:42:02;19.40;1.00
1536;DHT22;761;50.074;8.228;2022-10-16T14:44:32;19.40;1.00
1536;DHT22;761;50.074;8.228;2022-10-16T14:47:08;19.30;1.00
1536;DHT22;761;50.074;8.228;2022-10-16T14:49:42;19.20;1.00
1536;DHT22;761;50.074;8.228;2022-10-16T14:52:15;19.20;1.00
1536;DHT22;761;50.074;8.228;2022-10-16T14:54:49;19.20;1.00
1536;DHT22;761;50.074;8.228;2022-10-16T14:57:26;19.20;1.00
1536;DHT22;761;50.074;8.228;2022-10-16T14:59:56;19.20;1.00
1536;DHT22;761;50.074;8.228;2022-10-16T15:02:27;19.30;1.00
1536;DHT22;761;50.074;8.228;2022-10-16T15:04:57;19.30;1.00
1536;DHT22;761;50.074;8.228;2022-10-16T15:07:31;19.20;1.00
1536;DHT22;761;50.074;8.228;2022-10-16T15:10:01;19.20;1.00
1536;DHT22;761;50.074;8.228;2022-10-16T15:12:30;19.20;1.00
1536;DHT22;761;50.074;8.228;2022-10-16T15:14:58;19.30;1.00
1536;DHT22;761;50.074;8.228;2022-10-16T15:17:27;19.30;1.00
1536;DHT22;761;50.074;8.228;2022-10-16T15:19:55;19.30;1.00
1536;DHT22;761;50.074;8.228;2022-10-16T15:22:25;19.30;1.00
1536;DHT22;761;50.074;8.228;2022-10-16T15:24:54;19.30;1.00
1536;DHT22;761;50.074;8.228;2022-10-16T15:27:23;19.30;1.00
1536;DHT22;761;50.074;8.228;2022-10-16T15:34:57;19.30;1.00
1536;DHT22;761;50.074;8.228;2022-10-16T15:37:27;19.30;1.00
1536;DHT22;761;50.074;8.228;2022-10-16T15:39:56;19.40;1.00
1536;DHT22;761;50.074;8.228;2022-10-16T15:42:25;19.30;1.00
1536;DHT22;761;50.074;8.228;2022-10-16T15:44:59;19.30;1.00
1536;DHT22;761;50.074;8.228;2022-10-16T15:47:30;19.40;1.00
1536;DHT22;761;50.074;8.228;2022-10-16T15:49:59;19.30;1.00
1536;DHT22;761;50.074;8.228;2022-10-16T15:52:28;19.30;1.00
1536;DHT22;761;50.074;8.228;2022-10-16T16:00:08;19.00;1.00
1536;DHT22;761;50.074;8.228;2022-10-16T16:02:38;19.10;1.00
1536;DHT22;761;50.074;8.228;2022-10-16T16:05:10;19.00;1.00
1536;DHT22;761;50.074;8.228;2022-10-16T16:07:39;19.00;1.00
1536;DHT22;761;50.074;8.228;2022-10-16T16:10:10;19.00;1.00
1536;DHT22;761;50.074;8.228;2022-10-16T16:12:39;19.00;1.00
1536;DHT22;761;50.074;8.228;2022-10-16T16:15:12;19.00;1.00
1536;DHT22;761;50.074;8.228;2022-10-16T16:17:42;18.90;1.00
1536;DHT22;761;50.074;8.228;2022-10-16T16:20:13;18.90;1.00
1536;DHT22;761;50.074;8.228;2022-10-16T16:22:42;18.80;1.00
1536;DHT22;761;50.074;8.228;2022-10-16T16:27:39;18.50;1.00
1536;DHT22;761;50.074;8.228;2022-10-16T16:30:11;18.40;1.00
1536;DHT22;761;50.074;8.228;2022-10-16T16:32:45;18.40;1.00
1536;DHT22;761;50.074;8.228;2022-10-16T16:35:14;18.30;1.00
1536;DHT22;761;50.074;8.228;2022-10-16T16:37:42;18.30;1.00
1536;DHT22;761;50.074;8.228;2022-10-16T16:40:11;18.20;1.00
1536;DHT22;761;50.074;8.228;2022-10-16T16:42:39;18.20;1.00
1536;DHT22;761;50.074;8.228;2022-10-16T16:50:10;17.90;1.00
1536;DHT22;761;50.074;8.228;2022-10-16T17:02:37;17.70;1.00
1536;DHT22;761;50.074;8.228;2022-10-16T17:05:10;17.70;1.00
1536;DHT22;761;50.074;8.228;2022-10-16T17:07:38;17.60;1.00
1536;DHT22;761;50.074;8.228;2022-10-16T17:10:10;17.60;1.00
1536;DHT22;761;50.074;8.228;2022-10-16T17:12:39;17.60;1.00
1536;DHT22;761;50.074;8.228;2022-10-16T17:15:08;17.50;1.00
1536;DHT22;761;50.074;8.228;2022-10-16T17:17:38;17.50;1.00
1536;DHT22;761;50.074;8.228;2022-10-16T17:20:07;17.50;1.00
1536;DHT22;761;50.074;8.228;2022-10-16T17:22:37;17.50;1.00
1536;DHT22;761;50.074;8.228;2022-10-16T17:25:06;17.50;1.00
1536;DHT22;761;50.074;8.228;2022-10-16T17:40:08;17.10;1.00
1536;DHT22;761;50.074;8.228;2022-10-16T17:42:37;17.20;1.00
1536;DHT22;761;50.074;8.228;2022-10-16T17:45:07;17.10;1.00
1536;DHT22;761;50.074;8.228;2022-10-16T17:47:39;17.00;1.00
1536;DHT22;761;50.074;8.228;2022-10-16T17:50:09;17.00;1.00
1536;DHT22;761;50.074;8.228;2022-10-16T17:52:43;17.10;1.00
1536;DHT22;761;50.074;8.228;2022-10-16T17:55:12;16.90;1.00
1536;DHT22;761;50.074;8.228;2022-10-16T18:00:10;16.80;1.00
1536;DHT22;761;50.074;8.228;2022-10-16T18:02:40;16.70;1.00
1536;DHT22;761;50.074;8.228;2022-10-16T18:05:08;16.60;1.00
1536;DHT22;761;50.074;8.228;2022-10-16T18:07:37;16.60;1.00
1536;DHT22;761;50.074;8.228;2022-10-16T18:10:07;16.60;1.00
1536;DHT22;761;50.074;8.228;2022-10-16T18:12:40;16.50;1.00
1536;DHT22;761;50.074;8.228;2022-10-16T18:22:48;16.30;1.00
1536;DHT22;761;50.074;8.228;2022-10-16T18:30:17;16.20;1.00
1536;DHT22;761;50.074;8.228;2022-10-16T18:37:45;16.00;1.00
1536;DHT22;761;50.074;8.228;2022-10-16T18:40:14;16.00;1.00
1536;DHT22;761;50.074;8.228;2022-10-16T18:42:42;16.00;1.00
1536;DHT22;761;50.074;8.228;2022-10-16T18:45:11;16.00;1.00
1536;DHT22;761;50.074;8.228;2022-10-16T18:52:46;15.80;1.00